sensor_id;sensor_type;location;lat;lon;timestamp;temperature;humidity
38592;DHT22;24356;48.460;11.450;2022-12-29T00:02:15;0.80;94.60
38592;DHT22;24356;48.460;11.450;2022-12-29T00:04:42;0.80;94.60
38592;DHT22;24356;48.460;11.450;2022-12-29T00:07:07;0.80;94.60
38592;DHT22;24356;48.460;11.450;2022-12-29T00:09:34;0.80;94.60
38592;DHT22;24356;48.460;11.450;2022-12-29T00:12:00;0.80;94.60
38592;DHT22;24356;48.460;11.450;2022-12-29T00:14:27;0.80;94.60
38592;DHT22;24356;48.460;11.450;2022-12-29T00:17:12;0.80;94.70
38592;DHT22;24356;48.460;11.450;2022-12-29T00:19:38;0.80;94.60
38592;DHT22;24356;48.460;11.450;2022-12-29T00:22:22;0.80;94.60
38592;DHT22;24356;48.460;11.450;2022-12-29T00:25:11;0.80;94.60
38592;DHT22;24356;48.460;11.450;2022-12-29T00:27:55;0.80;94.60
38592;DHT22;24356;48.460;11.450;2022-12-29T00:30:43;0.90;94.60
38592;DHT22;24356;48.460;11.450;2022-12-29T00:33:31;0.80;94.60
38592;DHT22;24356;48.460;11.450;2022-12-29T00:36:30;0.80;94.50
38592;DHT22;24356;48.460;11.450;2022-12-29T00:38:59;0.80;94.50
38592;DHT22;24356;48.460;11.450;2022-12-29T00:41:44;0.80;94.50
38592;DHT22;24356;48.460;11.450;2022-12-29T00:44:28;0.80;94.60
38592;DHT22;24356;48.460;11.450;2022-12-29T00:46:53;0.80;94.50
38592;DHT22;24356;48.460;11.450;2022-12-29T00:49:19;0.80;94.50
38592;DHT22;24356;48.460;11.450;2022-12-29T00:52:08;0.80;94.50
38592;DHT22;24356;48.460;11.450;2022-12-29T00:54:36;0.80;94.50
38592;DHT22;24356;48.460;11.450;2022-12-29T00:57:03;0.80;94.50
38592;DHT22;24356;48.460;11.450;2022-12-29T00:59:28;0.70;94.50
38592;DHT22;24356;48.460;11.450;2022-12-29T01:01:54;0.80;94.50
38592;DHT22;24356;48.460;11.450;2022-12-29T01:04:23;0.70;94.60
38592;DHT22;24356;48.460;11.450;2022-12-29T01:06:49;0.70;94.60
38592;DHT22;24356;48.460;11.450;2022-12-29T01:09:16;0.70;94.50
38592;DHT22;24356;48.460;11.450;2022-12-29T01:12:01;0.70;94.60
38592;DHT22;24356;48.460;11.450;2022-12-29T01:14:27;0.70;94.60
38592;DHT22;24356;48.460;11.450;2022-12-29T01:16:53;0.70;94.50
38592;DHT22;24356;48.460;11.450;2022-12-29T01:19:19;0.80;94.50
38592;DHT22;24356;48.460;11.450;2022-12-29T01:21:46;0.70;94.60
38592;DHT22;24356;48.460;11.450;2022-12-29T01:24:11;0.70;94.50
38592;DHT22;24356;48.460;11.450;2022-12-29T01:26:37;0.70;94.40
38592;DHT22;24356;48.460;11.450;2022-12-29T01:29:03;0.70;94.50
38592;DHT22;24356;48.460;11.450;2022-12-29T01:31:29;0.80;94.50
38592;DHT22;24356;48.460;11.450;2022-12-29T01:33:54;0.70;94.40
38592;DHT22;24356;48.460;11.450;2022-12-29T01:36:20;0.70;94.40
38592;DHT22;24356;48.460;11.450;2022-12-29T01:38:46;0.70;94.40
38592;DHT22;24356;48.460;11.450;2022-12-29T01:41:13;0.70;94.40
38592;DHT22;24356;48.460;11.450;2022-12-29T01:43:53;0.70;94.40
38592;DHT22;24356;48.460;11.450;2022-12-29T01:46:40;0.70;94.30
38592;DHT22;24356;48.460;11.450;2022-12-29T01:49:19;0.70;94.50
38592;DHT22;24356;48.460;11.450;2022-12-29T01:51:50;0.70;94.40
38592;DHT22;24356;48.460;11.450;2022-12-29T01:54:22;0.70;94.40
38592;DHT22;24356;48.460;11.450;2022-12-29T01:56:49;0.70;94.40
38592;DHT22;24356;48.460;11.450;2022-12-29T01:59:19;0.70;94.40
38592;DHT22;24356;48.460;11.450;2022-12-29T02:01:46;0.70;94.30
38592;DHT22;24356;48.460;11.450;2022-12-29T02:04:12;0.60;94.40
38592;DHT22;24356;48.460;11.450;2022-12-29T02:06:48;0.60;94.40
38592;DHT22;24356;48.460;11.450;2022-12-29T02:09:15;0.60;94.40
38592;DHT22;24356;48.460;11.450;2022-12-29T02:11:41;0.60;94.30
38592;DHT22;24356;48.460;11.450;2022-12-29T02:14:13;0.60;94.40
38592;DHT22;24356;48.460;11.450;2022-12-29T02:44:24;1.00;93.80
38592;DHT22;24356;48.460;11.450;2022-12-29T02:49:47;1.10;93.60
38592;DHT22;24356;48.460;11.450;2022-12-29T02:52:17;1.10;93.50
38592;DHT22;24356;48.460;11.450;2022-12-29T02:54:43;1.20;93.40
38592;DHT22;24356;48.460;11.450;2022-12-29T02:57:15;1.20;93.20
38592;DHT22;24356;48.460;11.450;2022-12-29T02:59:58;1.30;93.20
38592;DHT22;24356;48.460;11.450;2022-12-29T03:11:12;1.50;92.80
38592;DHT22;24356;48.460;11.450;2022-12-29T03:14:08;1.60;92.50
38592;DHT22;24356;48.460;11.450;2022-12-29T03:17:03;1.60;92.40
38592;DHT22;24356;48.460;11.450;2022-12-29T03:19:37;1.70;92.30
38592;DHT22;24356;48.460;11.450;2022-12-29T03:22:12;1.70;92.40
38592;DHT22;24356;48.460;11.450;2022-12-29T03:25:27;1.80;92.50
38592;DHT22;24356;48.460;11.450;2022-12-29T03:27:57;1.80;92.50
38592;DHT22;24356;48.460;11.450;2022-12-29T03:30:24;1.90;92.40
38592;DHT22;24356;48.460;11.450;2022-12-29T03:32:58;1.90;92.40
38592;DHT22;24356;48.460;11.450;2022-12-29T03:35:27;1.90;92.30
38592;DHT22;24356;48.460;11.450;2022-12-29T03:38:03;1.90;92.20
38592;DHT22;24356;48.460;11.450;2022-12-29T03:40:32;2.00;92.20
38592;DHT22;24356;48.460;11.450;2022-12-29T03:42:59;2.00;92.20
38592;DHT22;24356;48.460;11.450;2022-12-29T03:45:25;2.00;92.10
38592;DHT22;24356;48.460;11.450;2022-12-29T03:47:52;2.10;92.10
38592;DHT22;24356;48.460;11.450;2022-12-29T03:50:18;2.10;91.90
38592;DHT22;24356;48.460;11.450;2022-12-29T03:52:44;2.10;91.90
38592;DHT22;24356;48.460;11.450;2022-12-29T03:55:09;2.20;91.80
38592;DHT22;24356;48.460;11.450;2022-12-29T03:57:35;2.20;91.60
38592;DHT22;24356;48.460;11.450;2022-12-29T04:00:02;2.30;91.80
38592;DHT22;24356;48.460;11.450;2022-12-29T04:02:28;2.30;91.90
38592;DHT22;24356;48.460;11.450;2022-12-29T04:04:53;2.30;91.80
38592;DHT22;24356;48.460;11.450;2022-12-29T04:07:19;2.30;92.00
38592;DHT22;24356;48.460;11.450;2022-12-29T04:09:45;2.30;92.20
38592;DHT22;24356;48.460;11.450;2022-12-29T04:12:10;2.40;91.80
38592;DHT22;24356;48.460;11.450;2022-12-29T04:14:36;2.40;91.90
38592;DHT22;24356;48.460;11.450;2022-12-29T04:17:01;2.40;91.90
38592;DHT22;24356;48.460;11.450;2022-12-29T04:19:27;2.50;91.90
38592;DHT22;24356;48.460;11.450;2022-12-29T04:21:52;2.50;91.90
38592;DHT22;24356;48.460;11.450;2022-12-29T04:24:18;2.50;91.50
38592;DHT22;24356;48.460;11.450;2022-12-29T04:26:43;2.50;91.80
38592;DHT22;24356;48.460;11.450;2022-12-29T04:29:09;2.60;91.70
38592;DHT22;24356;48.460;11.450;2022-12-29T04:31:35;2.60;91.70
38592;DHT22;24356;48.460;11.450;2022-12-29T04:34:00;2.60;91.70
38592;DHT22;24356;48.460;11.450;2022-12-29T04:36:26;2.60;91.60
38592;DHT22;24356;48.460;11.450;2022-12-29T04:38:52;2.70;91.60
38592;DHT22;24356;48.460;11.450;2022-12-29T04:41:17;2.70;91.40
38592;DHT22;24356;48.460;11.450;2022-12-29T04:43:43;2.70;91.40
38592;DHT22;24356;48.460;11.450;2022-12-29T04:46:09;2.70;91.30
38592;DHT22;24356;48.460;11.450;2022-12-29T04:48:34;2.70;91.50
38592;DHT22;24356;48.460;11.450;2022-12-29T04:51:00;2.70;91.30
38592;DHT22;24356;48.460;11.450;2022-12-29T04:53:25;2.80;91.20
38592;DHT22;24356;48.460;11.450;2022-12-29T04:55:53;2.80;91.50
38592;DHT22;24356;48.460;11.450;2022-12-29T04:58:20;2.80;91.40
38592;DHT22;24356;48.460;11.450;2022-12-29T05:00:46;2.80;91.40
38592;DHT22;24356;48.460;11.450;2022-12-29T05:03:12;2.80;91.20
38592;DHT22;24356;48.460;11.450;2022-12-29T05:05:37;2.90;91.60
38592;DHT22;24356;48.460;11.450;2022-12-29T05:08:03;2.90;91.60
38592;DHT22;24356;48.460;11.450;2022-12-29T05:10:29;2.90;91.40
38592;DHT22;24356;48.460;11.450;2022-12-29T05:12:54;2.90;91.30
38592;DHT22;24356;48.460;11.450;2022-12-29T05:15:20;3.00;91.30
38592;DHT22;24356;48.460;11.450;2022-12-29T05:17:46;3.00;91.20
38592;DHT22;24356;48.460;11.450;2022-12-29T05:20:12;3.00;91.10
38592;DHT22;24356;48.460;11.450;2022-12-29T05:22:37;3.00;91.20
38592;DHT22;24356;48.460;11.450;2022-12-29T05:25:03;3.00;91.10
38592;DHT22;24356;48.460;11.450;2022-12-29T05:27:29;3.10;91.20
38592;DHT22;24356;48.460;11.450;2022-12-29T05:29:54;3.10;91.10
38592;DHT22;24356;48.460;11.450;2022-12-29T05:32:20;3.10;91.20
38592;DHT22;24356;48.460;11.450;2022-12-29T05:34:46;3.10;91.10
38592;DHT22;24356;48.460;11.450;2022-12-29T05:37:11;3.10;91.00
38592;DHT22;24356;48.460;11.450;2022-12-29T05:39:37;3.10;91.20
38592;DHT22;24356;48.460;11.450;2022-12-29T05:42:03;3.20;91.10
38592;DHT22;24356;48.460;11.450;2022-12-29T05:44:28;3.20;91.10
38592;DHT22;24356;48.460;11.450;2022-12-29T05:46:54;3.20;90.90
38592;DHT22;24356;48.460;11.450;2022-12-29T05:49:19;3.30;90.90
38592;DHT22;24356;48.460;11.450;2022-12-29T05:51:45;3.30;90.90
38592;DHT22;24356;48.460;11.450;2022-12-29T05:54:11;3.30;90.80
38592;DHT22;24356;48.460;11.450;2022-12-29T05:56:37;3.30;90.80
38592;DHT22;24356;48.460;11.450;2022-12-29T05:59:03;3.30;90.80
38592;DHT22;24356;48.460;11.450;2022-12-29T06:01:28;3.30;90.70
38592;DHT22;24356;48.460;11.450;2022-12-29T06:03:54;3.30;90.70
38592;DHT22;24356;48.460;11.450;2022-12-29T06:06:19;3.30;90.90
38592;DHT22;24356;48.460;11.450;2022-12-29T06:08:45;3.40;90.70
38592;DHT22;24356;48.460;11.450;2022-12-29T06:11:11;3.40;90.60
38592;DHT22;24356;48.460;11.450;2022-12-29T06:13:37;3.40;90.50
38592;DHT22;24356;48.460;11.450;2022-12-29T06:16:03;3.40;90.50
38592;DHT22;24356;48.460;11.450;2022-12-29T06:18:29;3.40;90.50
38592;DHT22;24356;48.460;11.450;2022-12-29T06:20:59;3.40;90.30
38592;DHT22;24356;48.460;11.450;2022-12-29T06:23:25;3.40;90.50
38592;DHT22;24356;48.460;11.450;2022-12-29T06:25:50;3.40;90.40
38592;DHT22;24356;48.460;11.450;2022-12-29T06:28:16;3.40;90.60
38592;DHT22;24356;48.460;11.450;2022-12-29T06:30:44;3.40;90.60
38592;DHT22;24356;48.460;11.450;2022-12-29T06:33:10;3.50;90.50
38592;DHT22;24356;48.460;11.450;2022-12-29T06:35:36;3.50;90.60
38592;DHT22;24356;48.460;11.450;2022-12-29T06:38:02;3.50;90.50
38592;DHT22;24356;48.460;11.450;2022-12-29T06:40:29;3.50;90.50
38592;DHT22;24356;48.460;11.450;2022-12-29T06:42:54;3.50;90.50
38592;DHT22;24356;48.460;11.450;2022-12-29T06:45:20;3.50;90.40
38592;DHT22;24356;48.460;11.450;2022-12-29T06:47:45;3.50;90.50
38592;DHT22;24356;48.460;11.450;2022-12-29T06:50:11;3.50;90.40
38592;DHT22;24356;48.460;11.450;2022-12-29T06:52:36;3.50;90.40
38592;DHT22;24356;48.460;11.450;2022-12-29T06:55:02;3.50;90.40
38592;DHT22;24356;48.460;11.450;2022-12-29T06:57:28;3.50;90.50
38592;DHT22;24356;48.460;11.450;2022-12-29T06:59:55;3.60;90.50
38592;DHT22;24356;48.460;11.450;2022-12-29T07:02:21;3.50;90.50
38592;DHT22;24356;48.460;11.450;2022-12-29T07:04:47;3.60;90.60
38592;DHT22;24356;48.460;11.450;2022-12-29T07:07:12;3.60;90.50
38592;DHT22;24356;48.460;11.450;2022-12-29T07:09:38;3.60;90.50
38592;DHT22;24356;48.460;11.450;2022-12-29T07:12:04;3.60;90.50
38592;DHT22;24356;48.460;11.450;2022-12-29T07:14:29;3.60;90.50
38592;DHT22;24356;48.460;11.450;2022-12-29T07:16:56;3.60;90.00
38592;DHT22;24356;48.460;11.450;2022-12-29T07:19:22;3.60;90.10
38592;DHT22;24356;48.460;11.450;2022-12-29T07:21:47;3.70;90.20
38592;DHT22;24356;48.460;11.450;2022-12-29T07:24:13;3.70;90.20
38592;DHT22;24356;48.460;11.450;2022-12-29T07:26:39;3.70;90.50
38592;DHT22;24356;48.460;11.450;2022-12-29T07:29:04;3.70;90.50
38592;DHT22;24356;48.460;11.450;2022-12-29T07:31:30;3.80;90.50
38592;DHT22;24356;48.460;11.450;2022-12-29T07:33:56;3.80;90.50
38592;DHT22;24356;48.460;11.450;2022-12-29T07:36:22;3.80;90.30
38592;DHT22;24356;48.460;11.450;2022-12-29T07:38:47;3.80;90.40
38592;DHT22;24356;48.460;11.450;2022-12-29T07:41:13;3.90;90.20
38592;DHT22;24356;48.460;11.450;2022-12-29T07:43:39;3.90;90.10
38592;DHT22;24356;48.460;11.450;2022-12-29T07:46:04;3.90;90.10
38592;DHT22;24356;48.460;11.450;2022-12-29T07:48:30;3.90;90.30
38592;DHT22;24356;48.460;11.450;2022-12-29T07:50:55;4.00;90.30
38592;DHT22;24356;48.460;11.450;2022-12-29T07:53:21;4.00;90.30
38592;DHT22;24356;48.460;11.450;2022-12-29T07:55:47;4.00;90.40
38592;DHT22;24356;48.460;11.450;2022-12-29T07:58:12;4.10;90.30
38592;DHT22;24356;48.460;11.450;2022-12-29T08:00:38;4.10;90.40
38592;DHT22;24356;48.460;11.450;2022-12-29T08:03:04;4.20;90.50
38592;DHT22;24356;48.460;11.450;2022-12-29T08:05:33;4.30;90.30
38592;DHT22;24356;48.460;11.450;2022-12-29T08:07:59;4.30;90.30
38592;DHT22;24356;48.460;11.450;2022-12-29T08:10:25;4.40;90.40
38592;DHT22;24356;48.460;11.450;2022-12-29T08:12:51;4.40;90.30
38592;DHT22;24356;48.460;11.450;2022-12-29T08:15:16;4.50;90.10
38592;DHT22;24356;48.460;11.450;2022-12-29T08:17:42;4.60;90.30
38592;DHT22;24356;48.460;11.450;2022-12-29T08:20:08;4.60;90.50
38592;DHT22;24356;48.460;11.450;2022-12-29T08:22:34;4.70;90.20
38592;DHT22;24356;48.460;11.450;2022-12-29T08:25:00;4.80;90.20
38592;DHT22;24356;48.460;11.450;2022-12-29T08:27:26;4.90;90.20
38592;DHT22;24356;48.460;11.450;2022-12-29T08:29:51;5.00;90.10
38592;DHT22;24356;48.460;11.450;2022-12-29T08:32:17;5.00;90.10
38592;DHT22;24356;48.460;11.450;2022-12-29T08:34:43;5.10;90.10
38592;DHT22;24356;48.460;11.450;2022-12-29T08:37:10;5.20;89.90
38592;DHT22;24356;48.460;11.450;2022-12-29T08:39:35;5.30;89.90
38592;DHT22;24356;48.460;11.450;2022-12-29T08:42:01;5.50;89.50
38592;DHT22;24356;48.460;11.450;2022-12-29T08:44:27;5.70;89.30
38592;DHT22;24356;48.460;11.450;2022-12-29T08:46:52;5.90;89.00
38592;DHT22;24356;48.460;11.450;2022-12-29T08:49:19;6.20;88.10
38592;DHT22;24356;48.460;11.450;2022-12-29T08:51:45;6.40;88.10
38592;DHT22;24356;48.460;11.450;2022-12-29T08:54:10;6.70;87.30
38592;DHT22;24356;48.460;11.450;2022-12-29T08:56:36;6.90;86.60
38592;DHT22;24356;48.460;11.450;2022-12-29T08:59:02;7.10;86.10
38592;DHT22;24356;48.460;11.450;2022-12-29T09:01:27;7.20;86.00
38592;DHT22;24356;48.460;11.450;2022-12-29T09:03:53;7.40;85.70
38592;DHT22;24356;48.460;11.450;2022-12-29T09:06:19;7.50;85.40
38592;DHT22;24356;48.460;11.450;2022-12-29T09:08:45;7.60;85.70
38592;DHT22;24356;48.460;11.450;2022-12-29T09:11:14;7.60;85.20
38592;DHT22;24356;48.460;11.450;2022-12-29T09:13:41;7.60;85.60
38592;DHT22;24356;48.460;11.450;2022-12-29T09:16:06;7.50;85.40
38592;DHT22;24356;48.460;11.450;2022-12-29T09:18:32;7.50;86.10
38592;DHT22;24356;48.460;11.450;2022-12-29T09:20:59;7.40;86.30
38592;DHT22;24356;48.460;11.450;2022-12-29T09:23:26;7.40;86.50
38592;DHT22;24356;48.460;11.450;2022-12-29T09:25:52;7.40;86.50
38592;DHT22;24356;48.460;11.450;2022-12-29T09:28:18;7.40;86.50
38592;DHT22;24356;48.460;11.450;2022-12-29T09:33:44;7.30;86.80
38592;DHT22;24356;48.460;11.450;2022-12-29T09:36:10;7.30;87.40
38592;DHT22;24356;48.460;11.450;2022-12-29T09:38:35;7.30;87.00
38592;DHT22;24356;48.460;11.450;2022-12-29T09:41:24;7.30;87.10
38592;DHT22;24356;48.460;11.450;2022-12-29T09:43:55;7.30;87.00
38592;DHT22;24356;48.460;11.450;2022-12-29T09:49:07;7.30;87.70
38592;DHT22;24356;48.460;11.450;2022-12-29T09:51:36;7.30;86.80
38592;DHT22;24356;48.460;11.450;2022-12-29T09:54:34;7.30;87.10
38592;DHT22;24356;48.460;11.450;2022-12-29T09:57:02;7.30;87.10
38592;DHT22;24356;48.460;11.450;2022-12-29T09:59:39;7.30;87.30
38592;DHT22;24356;48.460;11.450;2022-12-29T10:02:32;7.40;87.10
38592;DHT22;24356;48.460;11.450;2022-12-29T10:04:58;7.40;86.80
38592;DHT22;24356;48.460;11.450;2022-12-29T10:07:59;7.40;87.20
38592;DHT22;24356;48.460;11.450;2022-12-29T10:13:00;7.50;87.10
38592;DHT22;24356;48.460;11.450;2022-12-29T10:15:57;7.50;87.10
38592;DHT22;24356;48.460;11.450;2022-12-29T10:24:21;7.70;87.10
38592;DHT22;24356;48.460;11.450;2022-12-29T10:26:48;7.70;87.10
38592;DHT22;24356;48.460;11.450;2022-12-29T10:29:32;7.70;86.80
38592;DHT22;24356;48.460;11.450;2022-12-29T10:32:32;7.80;86.70
38592;DHT22;24356;48.460;11.450;2022-12-29T10:35:13;7.80;86.60
38592;DHT22;24356;48.460;11.450;2022-12-29T10:40:42;8.00;86.40
38592;DHT22;24356;48.460;11.450;2022-12-29T10:43:35;8.00;86.70
38592;DHT22;24356;48.460;11.450;2022-12-29T10:46:05;8.10;86.70
38592;DHT22;24356;48.460;11.450;2022-12-29T10:48:34;8.10;86.60
38592;DHT22;24356;48.460;11.450;2022-12-29T10:51:04;8.20;86.50
38592;DHT22;24356;48.460;11.450;2022-12-29T10:53:55;8.20;86.20
38592;DHT22;24356;48.460;11.450;2022-12-29T10:56:33;8.30;86.40
38592;DHT22;24356;48.460;11.450;2022-12-29T10:59:10;8.30;86.30
38592;DHT22;24356;48.460;11.450;2022-12-29T11:01:46;8.40;86.40
38592;DHT22;24356;48.460;11.450;2022-12-29T11:04:25;8.40;86.60
38592;DHT22;24356;48.460;11.450;2022-12-29T11:06:59;8.40;86.20
38592;DHT22;24356;48.460;11.450;2022-12-29T11:09:31;8.50;86.20
38592;DHT22;24356;48.460;11.450;2022-12-29T11:11:57;8.50;86.40
38592;DHT22;24356;48.460;11.450;2022-12-29T11:14:31;8.50;85.80
38592;DHT22;24356;48.460;11.450;2022-12-29T11:17:02;8.50;85.50
38592;DHT22;24356;48.460;11.450;2022-12-29T11:19:31;8.50;85.50
38592;DHT22;24356;48.460;11.450;2022-12-29T11:22:23;8.50;85.10
38592;DHT22;24356;48.460;11.450;2022-12-29T11:24:50;8.50;85.10
38592;DHT22;24356;48.460;11.450;2022-12-29T11:27:21;8.60;85.00
38592;DHT22;24356;48.460;11.450;2022-12-29T11:29:49;8.50;84.90
38592;DHT22;24356;48.460;11.450;2022-12-29T11:32:22;8.60;85.00
38592;DHT22;24356;48.460;11.450;2022-12-29T11:34:48;8.60;85.60
38592;DHT22;24356;48.460;11.450;2022-12-29T11:37:19;8.60;85.20
38592;DHT22;24356;48.460;11.450;2022-12-29T11:40:02;8.60;85.10
38592;DHT22;24356;48.460;11.450;2022-12-29T11:45:18;8.60;85.20
38592;DHT22;24356;48.460;11.450;2022-12-29T11:47:47;8.60;85.50
38592;DHT22;24356;48.460;11.450;2022-12-29T11:50:25;8.60;85.30
38592;DHT22;24356;48.460;11.450;2022-12-29T11:53:04;8.60;85.40
38592;DHT22;24356;48.460;11.450;2022-12-29T11:55:31;8.60;85.60
38592;DHT22;24356;48.460;11.450;2022-12-29T11:57:59;8.60;85.60
38592;DHT22;24356;48.460;11.450;2022-12-29T12:00:31;8.60;85.80
38592;DHT22;24356;48.460;11.450;2022-12-29T12:03:04;8.70;85.90
38592;DHT22;24356;48.460;11.450;2022-12-29T12:06:04;8.70;85.90
38592;DHT22;24356;48.460;11.450;2022-12-29T12:11:13;8.80;86.20
38592;DHT22;24356;48.460;11.450;2022-12-29T12:14:10;8.90;86.10
38592;DHT22;24356;48.460;11.450;2022-12-29T12:16:41;8.90;85.90
38592;DHT22;24356;48.460;11.450;2022-12-29T12:19:44;9.00;86.00
38592;DHT22;24356;48.460;11.450;2022-12-29T12:22:27;9.10;86.00
38592;DHT22;24356;48.460;11.450;2022-12-29T12:30:19;9.30;86.10
38592;DHT22;24356;48.460;11.450;2022-12-29T12:43:39;9.50;85.10
38592;DHT22;24356;48.460;11.450;2022-12-29T12:46:31;9.60;85.20
38592;DHT22;24356;48.460;11.450;2022-12-29T12:49:11;9.60;85.30
38592;DHT22;24356;48.460;11.450;2022-12-29T13:09:41;9.80;84.40
38592;DHT22;24356;48.460;11.450;2022-12-29T13:18:10;9.80;84.80
38592;DHT22;24356;48.460;11.450;2022-12-29T13:23:39;9.80;84.80
38592;DHT22;24356;48.460;11.450;2022-12-29T13:26:17;9.80;84.60
38592;DHT22;24356;48.460;11.450;2022-12-29T13:34:56;9.80;84.60
38592;DHT22;24356;48.460;11.450;2022-12-29T13:37:30;9.80;84.40
38592;DHT22;24356;48.460;11.450;2022-12-29T13:40:02;9.80;84.30
38592;DHT22;24356;48.460;11.450;2022-12-29T13:42:29;9.80;84.80
38592;DHT22;24356;48.460;11.450;2022-12-29T13:45:06;9.80;84.50
38592;DHT22;24356;48.460;11.450;2022-12-29T13:48:04;9.80;84.90
38592;DHT22;24356;48.460;11.450;2022-12-29T13:50:35;9.80;84.60
38592;DHT22;24356;48.460;11.450;2022-12-29T13:55:56;9.80;84.50
38592;DHT22;24356;48.460;11.450;2022-12-29T14:01:24;9.70;84.50
38592;DHT22;24356;48.460;11.450;2022-12-29T14:03:55;9.70;84.70
38592;DHT22;24356;48.460;11.450;2022-12-29T14:06:32;9.70;85.30
38592;DHT22;24356;48.460;11.450;2022-12-29T14:09:06;9.60;85.50
38592;DHT22;24356;48.460;11.450;2022-12-29T14:11:37;9.60;85.10
38592;DHT22;24356;48.460;11.450;2022-12-29T14:14:23;9.60;85.00
38592;DHT22;24356;48.460;11.450;2022-12-29T14:16:50;9.60;85.20
38592;DHT22;24356;48.460;11.450;2022-12-29T14:19:18;9.60;85.50
38592;DHT22;24356;48.460;11.450;2022-12-29T14:22:03;9.50;85.10
38592;DHT22;24356;48.460;11.450;2022-12-29T14:34:56;9.40;86.60
38592;DHT22;24356;48.460;11.450;2022-12-29T14:42:48;9.30;86.20
38592;DHT22;24356;48.460;11.450;2022-12-29T14:47:46;9.20;86.40
38592;DHT22;24356;48.460;11.450;2022-12-29T14:50:22;9.20;86.20
38592;DHT22;24356;48.460;11.450;2022-12-29T14:58:21;9.10;86.50
38592;DHT22;24356;48.460;11.450;2022-12-29T15:00:48;9.10;87.00
38592;DHT22;24356;48.460;11.450;2022-12-29T15:03:22;9.10;87.00
38592;DHT22;24356;48.460;11.450;2022-12-29T15:05:58;9.10;87.00
38592;DHT22;24356;48.460;11.450;2022-12-29T15:08:33;9.10;86.90
38592;DHT22;24356;48.460;11.450;2022-12-29T15:11:20;9.00;87.10
38592;DHT22;24356;48.460;11.450;2022-12-29T15:13:46;9.00;86.90
38592;DHT22;24356;48.460;11.450;2022-12-29T15:16:40;8.90;87.20
38592;DHT22;24356;48.460;11.450;2022-12-29T15:19:23;8.90;87.30
38592;DHT22;24356;48.460;11.450;2022-12-29T15:21:52;8.90;87.40
38592;DHT22;24356;48.460;11.450;2022-12-29T15:24:20;8.90;87.40
38592;DHT22;24356;48.460;11.450;2022-12-29T15:26:49;8.80;87.40
38592;DHT22;24356;48.460;11.450;2022-12-29T15:29:32;8.80;87.30
38592;DHT22;24356;48.460;11.450;2022-12-29T15:32:10;8.70;87.40
38592;DHT22;24356;48.460;11.450;2022-12-29T15:34:37;8.70;87.40
38592;DHT22;24356;48.460;11.450;2022-12-29T15:37:07;8.60;87.80
38592;DHT22;24356;48.460;11.450;2022-12-29T15:39:33;8.50;87.90
38592;DHT22;24356;48.460;11.450;2022-12-29T15:44:43;8.50;88.30
38592;DHT22;24356;48.460;11.450;2022-12-29T15:47:16;8.40;88.20
38592;DHT22;24356;48.460;11.450;2022-12-29T15:49:44;8.40;87.80
38592;DHT22;24356;48.460;11.450;2022-12-29T15:52:10;8.40;87.80
38592;DHT22;24356;48.460;11.450;2022-12-29T15:54:36;8.40;88.20
38592;DHT22;24356;48.460;11.450;2022-12-29T15:57:17;8.30;88.30
38592;DHT22;24356;48.460;11.450;2022-12-29T15:59:46;8.30;87.70
38592;DHT22;24356;48.460;11.450;2022-12-29T16:02:13;8.30;88.00
38592;DHT22;24356;48.460;11.450;2022-12-29T16:04:40;8.20;88.20
38592;DHT22;24356;48.460;11.450;2022-12-29T16:07:27;8.10;88.30
38592;DHT22;24356;48.460;11.450;2022-12-29T16:09:57;8.00;88.50
38592;DHT22;24356;48.460;11.450;2022-12-29T16:12:32;7.90;88.70
38592;DHT22;24356;48.460;11.450;2022-12-29T16:15:00;7.80;89.20
38592;DHT22;24356;48.460;11.450;2022-12-29T16:17:29;7.70;89.20
38592;DHT22;24356;48.460;11.450;2022-12-29T16:20:13;7.60;89.80
38592;DHT22;24356;48.460;11.450;2022-12-29T16:22:42;7.60;89.80
38592;DHT22;24356;48.460;11.450;2022-12-29T16:25:32;7.50;90.20
38592;DHT22;24356;48.460;11.450;2022-12-29T16:28:02;7.40;89.90
38592;DHT22;24356;48.460;11.450;2022-12-29T16:30:31;7.40;90.00
38592;DHT22;24356;48.460;11.450;2022-12-29T16:33:00;7.30;89.70
38592;DHT22;24356;48.460;11.450;2022-12-29T16:35:48;7.30;90.00
38592;DHT22;24356;48.460;11.450;2022-12-29T16:38:23;7.30;89.70
38592;DHT22;24356;48.460;11.450;2022-12-29T16:40:52;7.30;89.60
38592;DHT22;24356;48.460;11.450;2022-12-29T16:46:18;7.20;89.50
38592;DHT22;24356;48.460;11.450;2022-12-29T16:48:52;7.20;89.60
38592;DHT22;24356;48.460;11.450;2022-12-29T16:51:28;7.10;89.60
38592;DHT22;24356;48.460;11.450;2022-12-29T16:53:55;7.10;89.80
38592;DHT22;24356;48.460;11.450;2022-12-29T16:56:24;7.10;89.60
38592;DHT22;24356;48.460;11.450;2022-12-29T16:59:01;7.10;89.50
38592;DHT22;24356;48.460;11.450;2022-12-29T17:01:28;7.10;89.60
38592;DHT22;24356;48.460;11.450;2022-12-29T17:03:58;7.10;89.90
38592;DHT22;24356;48.460;11.450;2022-12-29T17:06:24;7.10;89.80
38592;DHT22;24356;48.460;11.450;2022-12-29T17:08:51;7.10;89.70
38592;DHT22;24356;48.460;11.450;2022-12-29T17:11:31;7.10;89.70
38592;DHT22;24356;48.460;11.450;2022-12-29T17:16:42;7.20;89.80
38592;DHT22;24356;48.460;11.450;2022-12-29T17:19:15;7.20;89.80
38592;DHT22;24356;48.460;11.450;2022-12-29T17:21:41;7.20;89.80
38592;DHT22;24356;48.460;11.450;2022-12-29T17:24:16;7.20;89.60
38592;DHT22;24356;48.460;11.450;2022-12-29T17:26:45;7.20;89.50
38592;DHT22;24356;48.460;11.450;2022-12-29T17:29:38;7.10;89.60
38592;DHT22;24356;48.460;11.450;2022-12-29T17:32:11;7.10;89.60
38592;DHT22;24356;48.460;11.450;2022-12-29T17:34:38;7.00;89.60
38592;DHT22;24356;48.460;11.450;2022-12-29T17:39:50;7.00;89.70
38592;DHT22;24356;48.460;11.450;2022-12-29T17:42:18;7.00;89.70
38592;DHT22;24356;48.460;11.450;2022-12-29T17:44:44;6.90;90.00
38592;DHT22;24356;48.460;11.450;2022-12-29T17:47:10;6.90;90.00
38592;DHT22;24356;48.460;11.450;2022-12-29T17:49:36;6.90;89.90
38592;DHT22;24356;48.460;11.450;2022-12-29T17:52:03;6.90;89.90
38592;DHT22;24356;48.460;11.450;2022-12-29T17:54:29;6.90;89.90
38592;DHT22;24356;48.460;11.450;2022-12-29T17:56:55;6.90;90.00
38592;DHT22;24356;48.460;11.450;2022-12-29T17:59:20;6.80;90.10
38592;DHT22;24356;48.460;11.450;2022-12-29T18:01:48;6.80;90.00
38592;DHT22;24356;48.460;11.450;2022-12-29T18:04:19;6.90;90.10
38592;DHT22;24356;48.460;11.450;2022-12-29T18:06:45;6.80;90.10
38592;DHT22;24356;48.460;11.450;2022-12-29T18:09:12;6.90;89.90
38592;DHT22;24356;48.460;11.450;2022-12-29T18:11:39;6.80;90.00
38592;DHT22;24356;48.460;11.450;2022-12-29T18:14:14;6.80;90.10
38592;DHT22;24356;48.460;11.450;2022-12-29T18:16:39;6.80;90.00
38592;DHT22;24356;48.460;11.450;2022-12-29T18:19:05;6.80;90.10
38592;DHT22;24356;48.460;11.450;2022-12-29T18:21:31;6.80;90.10
38592;DHT22;24356;48.460;11.450;2022-12-29T18:23:57;6.80;90.10